Time;durP1;ratioP1;P1;durP2;ratioP2;P2;SDS_P1;SDS_P2;PMS_P1;PMS_P2;Temp;Humidity;BMP_temperature;BMP_pressure;BME280_temperature;BME280_humidity;BME280_pressure;Samples;Min_cycle;Max_cycle;Signal;HPM_P1;HPM_P2
2022/08/14 00:01:12;;;;;;;8.75;7.97;;;25.20;99.90;;;;;;10251729;28;20261;-79
2022/08/14 00:06:15;;;;;;;9.48;8.57;;;25.20;99.90;;;;;;10255748;29;20238;-79
2022/08/14 00:11:30;;;;;;;9.38;8.50;;;25.20;99.90;;;;;;10254694;29;20673;-79
2022/08/14 00:16:33;;;;;;;9.43;8.52;;;25.10;99.90;;;;;;10253575;29;20261;-79
2022/08/14 00:21:48;;;;;;;8.95;8.05;;;25.10;99.90;;;;;;10255538;29;20202;-79
2022/08/14 00:26:52;;;;;;;8.52;7.78;;;25.10;99.90;;;;;;10254074;29;20238;-79
2022/08/14 00:31:56;;;;;;;10.65;9.20;;;25.10;99.90;;;;;;10252803;29;20702;-79
2022/08/14 00:36:58;;;;;;;9.25;8.35;;;25.00;99.90;;;;;;10252419;29;20262;-79
2022/08/14 00:42:04;;;;;;;8.93;8.07;;;25.00;99.90;;;;;;10252153;29;20296;-79
2022/08/14 00:47:07;;;;;;;9.15;8.35;;;25.00;99.90;;;;;;10251896;29;20261;-79
2022/08/14 00:52:15;;;;;;;8.73;7.93;;;24.90;99.90;;;;;;10254117;29;20545;-79
2022/08/14 00:57:22;;;;;;;8.90;8.10;;;24.90;99.90;;;;;;10251904;29;20317;-79
2022/08/14 01:02:25;;;;;;;8.32;7.63;;;24.90;99.90;;;;;;10251440;28;20329;-79
2022/08/14 01:07:33;;;;;;;9.32;7.72;;;24.90;99.90;;;;;;10253019;29;20692;-79
2022/08/14 01:12:56;;;;;;;8.88;8.13;;;24.80;99.90;;;;;;10251461;28;20241;-79
2022/08/14 01:23:20;;;;;;;8.80;8.10;;;24.80;99.90;;;;;;10252176;28;20210;-80
2022/08/14 01:28:25;;;;;;;9.05;8.25;;;24.80;99.90;;;;;;10259217;28;20285;-80
2022/08/14 01:33:50;;;;;;;7.32;6.70;;;24.80;99.90;;;;;;10250597;29;20713;-80
2022/08/14 01:39:16;;;;;;;7.95;7.35;;;24.80;99.90;;;;;;10250055;29;20289;-80
2022/08/14 01:44:21;;;;;;;8.02;7.32;;;24.80;99.90;;;;;;10251183;29;20293;-80
2022/08/14 01:49:35;;;;;;;9.32;7.55;;;24.70;99.90;;;;;;10236216;29;20250;-80
2022/08/14 01:54:48;;;;;;;8.43;7.63;;;24.70;99.90;;;;;;10249573;28;20316;-80
2022/08/14 01:59:59;;;;;;;7.88;7.18;;;24.70;99.90;;;;;;10247179;28;20325;-80
2022/08/14 02:05:10;;;;;;;7.78;6.85;;;24.70;99.90;;;;;;10252820;28;20214;-80
2022/08/14 02:10:13;;;;;;;7.78;7.07;;;24.70;99.90;;;;;;10250053;29;20257;-80
2022/08/14 02:15:20;;;;;;;8.65;7.88;;;24.70;99.90;;;;;;10238775;28;20238;-80
2022/08/14 02:20:23;;;;;;;8.02;7.43;;;24.70;99.90;;;;;;10249279;28;20257;-79
2022/08/14 02:25:25;;;;;;;8.05;7.35;;;24.70;99.90;;;;;;10248358;29;20304;-80
2022/08/14 02:30:33;;;;;;;7.80;7.07;;;24.60;99.90;;;;;;10242404;29;20234;-80
2022/08/14 02:35:41;;;;;;;7.68;7.07;;;24.60;99.90;;;;;;10249532;29;20238;-80
2022/08/14 02:40:44;;;;;;;7.57;6.88;;;24.60;99.90;;;;;;10247793;29;20249;-80
2022/08/14 02:45:47;;;;;;;7.78;7.18;;;24.60;99.90;;;;;;10249932;29;20234;-80
2022/08/14 02:50:51;;;;;;;7.20;6.60;;;24.50;99.90;;;;;;10250279;29;20289;-80
2022/08/14 02:55:55;;;;;;;7.70;7.00;;;24.50;99.90;;;;;;10247588;29;20848;-80
2022/08/14 03:01:07;;;;;;;8.18;7.47;;;24.50;99.90;;;;;;10248977;29;20312;-79
2022/08/14 03:06:11;;;;;;;7.47;6.88;;;24.40;99.90;;;;;;10246975;29;20234;-80
2022/08/14 03:11:21;;;;;;;7.53;6.93;;;24.40;99.90;;;;;;10248818;29;20230;-80
2022/08/14 03:16:35;;;;;;;7.40;6.80;;;24.40;99.90;;;;;;10249042;29;20281;-80
2022/08/14 03:21:39;;;;;;;7.57;6.88;;;24.40;99.90;;;;;;10248543;29;20230;-80
2022/08/14 03:26:44;;;;;;;7.95;7.28;;;24.40;99.90;;;;;;10246321;29;20234;-80
2022/08/14 03:31:50;;;;;;;6.90;6.30;;;24.40;99.90;;;;;;10246093;29;20293;-80
2022/08/14 03:36:54;;;;;;;6.75;6.15;;;24.40;99.90;;;;;;10247903;29;20301;-80
2022/08/14 03:42:16;;;;;;;7.60;6.88;;;24.40;99.90;;;;;;10247096;29;20225;-80
2022/08/14 03:47:20;;;;;;;6.82;6.22;;;24.40;99.90;;;;;;10229672;29;20266;-80
2022/08/14 03:52:44;;;;;;;7.88;7.20;;;24.30;99.90;;;;;;10248000;29;20241;-80
2022/08/14 03:57:57;;;;;;;7.35;6.75;;;24.30;99.90;;;;;;10247490;29;20719;-80
2022/08/14 04:03:04;;;;;;;7.07;6.47;;;24.30;99.90;;;;;;10247571;29;20262;-80
2022/08/14 04:08:08;;;;;;;7.38;6.78;;;24.30;99.90;;;;;;10244542;29;20237;-80
2022/08/14 04:13:34;;;;;;;7.55;6.88;;;24.30;99.90;;;;;;10246074;29;20309;-80
2022/08/14 04:18:39;;;;;;;7.43;6.80;;;24.40;99.90;;;;;;10247360;29;20328;-80
2022/08/14 04:23:45;;;;;;;6.65;6.15;;;24.30;99.90;;;;;;10247436;29;20234;-80
2022/08/14 04:28:59;;;;;;;7.22;6.50;;;24.30;99.90;;;;;;10245954;29;20246;-80
2022/08/14 04:34:16;;;;;;;6.60;6.10;;;24.40;99.90;;;;;;10245516;28;20262;-79
2022/08/14 04:44:59;;;;;;;6.63;6.03;;;24.40;99.90;;;;;;10246791;28;20261;-79
2022/08/14 04:50:04;;;;;;;7.30;6.30;;;24.40;99.90;;;;;;10252607;29;20238;-79
2022/08/14 04:55:07;;;;;;;7.93;7.13;;;24.40;99.90;;;;;;10253093;29;20689;-81
2022/08/14 05:00:10;;;;;;;6.28;5.68;;;24.40;99.90;;;;;;10253118;29;20261;-79
2022/08/14 05:05:19;;;;;;;8.77;6.40;;;24.40;99.90;;;;;;10251285;29;20234;-79
2022/08/14 05:10:25;;;;;;;6.43;5.93;;;24.40;99.90;;;;;;10250846;29;20260;-79
2022/08/14 05:15:35;;;;;;;6.32;5.88;;;24.50;99.90;;;;;;10253320;29;20238;-80
2022/08/14 05:20:46;;;;;;;6.45;5.95;;;24.50;99.90;;;;;;10252577;29;20261;-79
2022/08/14 05:26:16;;;;;;;7.47;6.85;;;24.50;99.90;;;;;;10250678;29;20265;-79
2022/08/14 05:31:19;;;;;;;6.07;5.57;;;24.60;99.90;;;;;;10233760;29;20637;-79
2022/08/14 05:36:22;;;;;;;6.43;5.82;;;24.60;99.90;;;;;;10246540;29;20230;-79
2022/08/14 05:41:26;;;;;;;6.53;6.03;;;24.60;99.90;;;;;;10240525;29;20258;-79
2022/08/14 05:46:49;;;;;;;6.72;6.13;;;24.60;99.90;;;;;;10233391;29;20245;-80
2022/08/14 05:51:51;;;;;;;5.97;5.57;;;24.60;99.90;;;;;;10250198;29;20250;-79
2022/08/14 05:56:54;;;;;;;5.65;5.25;;;24.60;99.90;;;;;;10248771;28;20249;-80
2022/08/14 06:01:57;;;;;;;6.13;5.60;;;24.60;99.90;;;;;;10250271;29;20295;-79
2022/08/14 06:06:59;;;;;;;6.57;5.97;;;24.60;99.90;;;;;;10248181;29;20257;-79
2022/08/14 06:12:03;;;;;;;6.57;5.97;;;24.70;99.90;;;;;;10248165;28;20281;-81
2022/08/14 06:17:06;;;;;;;7.00;6.47;;;24.70;99.90;;;;;;10249521;29;20242;-80
2022/08/14 06:22:09;;;;;;;5.97;5.57;;;24.70;99.90;;;;;;10249052;28;20582;-80
2022/08/14 06:27:14;;;;;;;6.95;5.78;;;24.80;99.90;;;;;;10249768;29;20686;-80
2022/08/14 06:32:17;;;;;;;5.90;5.40;;;24.80;99.90;;;;;;10249041;29;20277;-79
2022/08/14 06:37:51;;;;;;;6.10;5.60;;;24.80;99.90;;;;;;10249448;29;20699;-80
2022/08/14 06:42:56;;;;;;;6.28;5.78;;;24.70;99.90;;;;;;10248190;29;20230;-79
2022/08/14 06:48:25;;;;;;;6.28;5.72;;;24.80;99.90;;;;;;10243215;29;20632;-79
2022/08/14 06:53:29;;;;;;;5.82;5.35;;;24.80;99.90;;;;;;10250673;28;20478;-79
2022/08/14 06:58:31;;;;;;;5.68;5.28;;;24.90;99.90;;;;;;10248232;29;20656;-79
2022/08/14 07:08:55;;;;;;;6.10;5.57;;;24.90;99.90;;;;;;10248135;28;20675;-79
2022/08/14 07:14:00;;;;;;;6.15;5.65;;;25.00;99.90;;;;;;10245918;28;20242;-79
2022/08/14 07:19:07;;;;;;;6.43;5.88;;;24.90;99.90;;;;;;10248970;29;20644;-79
2022/08/14 07:24:10;;;;;;;6.55;5.95;;;24.80;99.90;;;;;;10247765;29;20198;-79
2022/08/14 07:29:32;;;;;;;6.00;5.53;;;24.80;99.90;;;;;;10232725;29;20265;-79
2022/08/14 07:34:35;;;;;;;5.57;5.13;;;24.90;99.90;;;;;;10247467;29;20616;-79
2022/08/14 07:39:42;;;;;;;6.05;5.45;;;24.70;99.90;;;;;;10247940;29;20250;-80
2022/08/14 07:44:45;;;;;;;6.25;5.30;;;24.40;99.90;;;;;;10246491;29;20667;-80
2022/08/14 07:50:16;;;;;;;6.20;5.70;;;24.90;99.90;;;;;;10247870;29;20667;-80
2022/08/14 07:55:21;;;;;;;6.93;6.22;;;24.70;99.90;;;;;;10245805;28;20246;-80
2022/08/14 08:00:24;;;;;;;8.52;5.63;;;25.10;99.90;;;;;;10247227;29;20270;-79
2022/08/14 08:05:33;;;;;;;6.13;5.60;;;25.20;99.90;;;;;;10246059;28;20242;-79
2022/08/14 08:10:37;;;;;;;6.00;5.50;;;25.60;99.90;;;;;;10246034;29;20648;-80
2022/08/14 08:16:01;;;;;;;7.07;5.35;;;25.50;99.90;;;;;;10246057;29;20210;-80
2022/08/14 08:21:04;;;;;;;5.93;5.43;;;25.30;99.90;;;;;;10248988;28;20640;-79
2022/08/14 08:26:07;;;;;;;6.82;5.25;;;25.30;99.90;;;;;;10228505;29;20226;-80
2022/08/14 08:31:11;;;;;;;5.60;5.20;;;25.40;99.90;;;;;;10263678;28;20610;-79
2022/08/14 08:36:14;;;;;;;5.75;5.28;;;25.50;99.90;;;;;;10236544;29;20273;-79
2022/08/14 08:41:20;;;;;;;5.78;5.20;;;25.40;99.90;;;;;;10251364;29;20250;-80
2022/08/14 08:46:23;;;;;;;5.78;5.38;;;25.30;99.90;;;;;;10247614;28;20649;-81
2022/08/14 08:51:29;;;;;;;5.63;5.13;;;25.50;99.90;;;;;;10250853;28;20602;-80
2022/08/14 08:56:46;;;;;;;4.93;4.53;;;25.70;99.90;;;;;;10252085;28;20277;-80
2022/08/14 09:01:57;;;;;;;5.55;5.07;;;25.80;99.90;;;;;;10267955;28;20257;-79
2022/08/14 09:07:00;;;;;;;4.75;4.28;;;25.80;99.90;;;;;;10284482;28;20226;-79
2022/08/14 09:12:12;;;;;;;5.80;5.30;;;26.10;99.90;;;;;;10252787;29;20238;-79
2022/08/14 09:17:16;;;;;;;5.15;4.63;;;26.10;99.90;;;;;;10253023;29;20262;-79
2022/08/14 09:22:22;;;;;;;5.80;5.30;;;26.10;99.90;;;;;;10285722;28;20253;-79
2022/08/14 09:27:37;;;;;;;6.25;5.45;;;25.90;99.90;;;;;;10280936;28;20269;-79
2022/08/14 09:32:59;;;;;;;5.22;4.82;;;26.30;99.90;;;;;;10251573;28;20285;-79
2022/08/14 09:38:21;;;;;;;6.20;5.22;;;26.10;99.90;;;;;;10250776;29;20242;-80
2022/08/14 09:44:06;;;;;;;6.60;5.32;;;26.30;99.90;;;;;;10250152;28;20254;-79
2022/08/14 09:49:08;;;;;;;5.45;5.00;;;26.30;99.90;;;;;;10238517;29;20281;-79
2022/08/14 09:54:18;;;;;;;5.88;5.38;;;26.40;99.90;;;;;;10246598;29;20253;-81
2022/08/14 09:59:26;;;;;;;11.35;6.10;;;26.50;99.90;;;;;;10243884;29;20576;-79
2022/08/14 10:04:29;;;;;;;8.85;5.53;;;26.60;99.90;;;;;;10244640;29;20293;-78
2022/08/14 10:09:57;;;;;;;8.55;5.97;;;26.80;99.90;;;;;;10319505;23;20865;-78
2022/08/14 10:15:18;;;;;;;17.23;6.78;;;26.90;99.90;;;;;;10294200;23;20360;-86
2022/08/14 10:20:32;;;;;;;8.70;7.90;;;27.00;99.90;;;;;;10219975;29;20222;-86
2022/08/14 10:26:03;;;;;;;13.48;8.10;;;26.90;99.90;;;;;;10227502;29;20695;-87
2022/08/14 10:31:25;;;;;;;11.23;8.90;;;27.10;99.90;;;;;;10239674;29;20199;-86
2022/08/14 10:36:40;;;;;;;11.23;8.27;;;27.40;99.90;;;;;;10215939;29;20215;-86
2022/08/14 10:42:02;;;;;;;10.68;8.30;;;26.80;99.90;;;;;;10212246;29;20235;-86
2022/08/14 10:47:18;;;;;;;8.15;7.40;;;26.50;99.90;;;;;;10211612;29;20668;-86
2022/08/14 10:52:41;;;;;;;10.57;7.68;;;26.50;99.90;;;;;;10223269;29;20206;-86
2022/08/14 10:57:52;;;;;;;9.73;8.73;;;26.50;99.90;;;;;;10210024;29;20242;-86
2022/08/14 11:03:06;;;;;;;7.90;7.10;;;26.80;99.90;;;;;;10209571;28;20262;-86
2022/08/14 11:08:10;;;;;;;9.75;8.80;;;26.90;99.90;;;;;;10209885;29;20270;-86
2022/08/14 11:13:28;;;;;;;9.25;7.75;;;26.60;99.90;;;;;;10224494;29;20266;-86
2022/08/14 11:18:32;;;;;;;9.32;7.43;;;26.60;99.90;;;;;;10208369;29;20250;-87
2022/08/14 11:23:44;;;;;;;9.38;7.85;;;26.60;99.90;;;;;;10208600;29;20195;-86
2022/08/14 11:28:49;;;;;;;8.82;7.93;;;26.50;99.90;;;;;;10208226;29;20243;-87
2022/08/14 11:33:58;;;;;;;9.25;8.35;;;26.60;99.90;;;;;;10223788;28;20719;-86
2022/08/14 11:39:02;;;;;;;9.50;8.60;;;26.40;99.90;;;;;;10223466;29;20246;-86
2022/08/14 11:44:11;;;;;;;19.17;8.50;;;;;;;;;;10204930;29;20242;-90
2022/08/14 11:49:29;;;;;;;12.15;9.68;;;27.30;99.90;;;;;;10210600;29;20239;-94
2022/08/14 11:54:36;;;;;;;11.38;8.77;;;28.10;99.90;;;;;;9874893;28;10000566;-96
2022/08/14 11:59:39;;;;;;;13.52;9.13;;;28.50;99.90;;;;;;10238605;29;20207;-96
2022/08/14 12:04:57;;;;;;;12.57;7.97;;;28.70;99.90;;;;;;10249656;29;20256;-94
2022/08/14 12:10:00;;;;;;;10.02;8.82;;;28.60;99.90;;;;;;10233977;28;20211;-93
2022/08/14 12:15:37;;;;;;;12.82;8.45;;;28.50;99.90;;;;;;10223420;29;20230;-92
2022/08/14 12:20:46;;;;;;;10.35;9.35;;;28.40;99.90;;;;;;10234513;28;20278;-95
2022/08/14 12:26:06;;;;;;;12.00;9.13;;;28.30;99.90;;;;;;10232641;29;20258;-93
2022/08/14 12:31:29;;;;;;;9.85;8.85;;;28.40;99.90;;;;;;10205235;29;20219;-93
2022/08/14 12:36:46;;;;;;;9.85;8.50;;;28.40;99.90;;;;;;9874809;28;9999812;-93
2022/08/14 12:41:55;;;;;;;11.73;8.65;;;28.50;99.90;;;;;;10232320;29;20281;-95
2022/08/14 12:47:04;;;;;;;9.60;8.60;;;28.40;99.90;;;;;;10215008;29;20270;-95
2022/08/14 12:52:07;;;;;;;15.75;10.80;;;28.60;99.90;;;;;;10214793;29;20199;-94
2022/08/14 12:57:18;;;;;;;8.95;8.05;;;28.50;99.90;;;;;;10215080;29;20259;-93
2022/08/14 13:02:23;;;;;;;9.52;8.57;;;28.30;99.90;;;;;;10214551;29;20227;-94
2022/08/14 13:07:28;;;;;;;9.15;8.25;;;28.20;99.90;;;;;;10228009;28;20579;-92
2022/08/14 13:12:37;;;;;;;8.75;7.97;;;28.10;99.90;;;;;;10206005;29;20580;-93
2022/08/14 13:18:03;;;;;;;8.50;7.70;;;28.40;99.90;;;;;;10214831;29;20206;-93
2022/08/14 13:23:09;;;;;;;9.88;8.45;;;28.50;99.90;;;;;;10197775;29;20309;-95
2022/08/14 13:28:14;;;;;;;8.30;7.53;;;28.40;99.90;;;;;;10210135;29;20251;-93
2022/08/14 13:33:36;;;;;;;8.98;7.95;;;28.40;99.90;;;;;;10199017;29;20211;-93
2022/08/14 13:38:43;;;;;;;8.85;7.95;;;28.60;99.90;;;;;;10211875;29;20231;-94
2022/08/14 13:43:49;;;;;;;9.38;8.48;;;28.60;99.90;;;;;;10213254;29;20204;-95
2022/08/14 13:49:01;;;;;;;9.82;8.15;;;28.40;99.90;;;;;;10213841;29;20266;-94
2022/08/14 13:54:05;;;;;;;9.00;8.18;;;28.30;99.90;;;;;;10209799;29;20594;-95
2022/08/14 13:59:13;;;;;;;8.95;8.07;;;28.40;99.90;;;;;;10211198;29;20242;-94
2022/08/14 14:04:24;;;;;;;12.68;8.50;;;28.50;99.90;;;;;;10210492;29;20634;-93
2022/08/14 14:09:30;;;;;;;7.90;7.20;;;28.70;99.90;;;;;;10210870;29;20207;-92
2022/08/14 14:14:42;;;;;;;7.85;7.20;;;28.40;99.90;;;;;;10203597;29;20309;-96
2022/08/14 14:19:53;;;;;;;8.77;7.88;;;28.20;99.90;;;;;;10223021;28;20219;-92
2022/08/14 14:24:56;;;;;;;8.93;7.97;;;28.10;99.90;;;;;;10214217;29;20258;-94
2022/08/14 14:30:00;;;;;;;7.60;6.95;;;27.90;99.90;;;;;;10201669;29;20669;-94
2022/08/14 14:35:23;;;;;;;8.43;7.60;;;27.80;99.90;;;;;;10212775;29;20206;-93
2022/08/14 14:40:37;;;;;;;8.80;8.00;;;27.80;99.90;;;;;;10198826;29;20640;-94
2022/08/14 14:46:01;;;;;;;7.15;6.55;;;27.80;99.90;;;;;;10187414;29;20199;-94
2022/08/14 14:51:13;;;;;;;8.68;7.78;;;27.80;99.90;;;;;;10174413;29;20247;-93
2022/08/14 14:56:19;;;;;;;8.77;7.47;;;27.80;99.90;;;;;;10193815;29;20680;-94
2022/08/14 15:01:47;;;;;;;8.48;7.63;;;27.70;99.90;;;;;;10222499;29;20394;-94
2022/08/14 15:06:53;;;;;;;9.10;7.80;;;27.60;99.90;;;;;;10233209;29;20210;-94
2022/08/14 15:11:56;;;;;;;8.13;7.32;;;27.60;99.90;;;;;;10234350;28;20203;-94
2022/08/14 15:16:59;;;;;;;8.73;7.88;;;27.60;99.90;;;;;;10200207;29;20352;-93
2022/08/14 15:22:02;;;;;;;8.55;7.70;;;27.60;99.90;;;;;;10212436;29;20227;-94
2022/08/14 15:27:05;;;;;;;9.95;8.40;;;27.60;99.90;;;;;;10230592;29;20277;-93
2022/08/14 15:32:12;;;;;;;9.55;7.70;;;27.60;99.90;;;;;;10231606;28;20211;-95
2022/08/14 15:37:18;;;;;;;8.07;7.28;;;27.60;99.90;;;;;;10242861;28;20269;-94
2022/08/14 15:42:22;;;;;;;9.30;7.95;;;27.60;99.90;;;;;;10229769;29;20223;-94
2022/08/14 15:47:25;;;;;;;8.55;7.75;;;27.60;99.90;;;;;;10230647;28;20199;-94
2022/08/14 15:52:32;;;;;;;8.60;7.78;;;27.70;99.90;;;;;;10231140;29;20219;-94
2022/08/14 15:57:46;;;;;;;8.15;7.35;;;27.60;99.90;;;;;;10201022;29;20296;-94
2022/08/14 16:03:08;;;;;;;8.93;8.13;;;27.60;99.90;;;;;;10202154;29;20222;-94
2022/08/14 16:08:12;;;;;;;8.63;7.75;;;27.60;99.90;;;;;;10225069;28;20203;-94
2022/08/14 16:13:36;;;;;;;9.68;8.75;;;27.60;99.90;;;;;;10227893;28;20278;-94
2022/08/14 16:18:45;;;;;;;9.52;8.55;;;27.50;99.90;;;;;;10211928;29;20203;-93
2022/08/14 16:23:49;;;;;;;8.63;7.82;;;27.50;99.90;;;;;;10206786;29;20251;-95
2022/08/14 16:29:14;;;;;;;8.95;8.05;;;27.40;99.90;;;;;;10215301;29;20207;-94
2022/08/14 16:34:16;;;;;;;8.93;8.13;;;27.40;99.90;;;;;;10208737;29;20226;-94
2022/08/14 16:39:40;;;;;;;8.65;7.90;;;27.30;99.90;;;;;;10212682;29;20251;-95
2022/08/14 16:44:45;;;;;;;8.10;7.30;;;27.20;99.90;;;;;;10217008;29;20254;-95
2022/08/14 16:49:51;;;;;;;9.00;8.15;;;27.20;99.90;;;;;;10225077;28;20206;-94
2022/08/14 16:55:10;;;;;;;8.05;7.35;;;27.20;99.90;;;;;;10235140;28;20210;-94
2022/08/14 17:00:44;;;;;;;8.88;8.07;;;27.20;99.90;;;;;;10242390;28;20227;-94
2022/08/14 17:05:47;;;;;;;8.85;7.95;;;27.10;99.90;;;;;;10211798;29;20211;-94
2022/08/14 17:10:49;;;;;;;8.68;7.88;;;27.10;99.90;;;;;;10231398;28;20637;-94
2022/08/14 17:16:13;;;;;;;8.95;8.07;;;27.00;99.90;;;;;;10215365;28;20631;-94
2022/08/14 17:21:34;;;;;;;8.15;7.45;;;26.90;99.90;;;;;;10211930;29;20282;-94
2022/08/14 17:26:51;;;;;;;9.80;7.20;;;26.80;99.90;;;;;;10196179;29;20227;-95
2022/08/14 17:32:12;;;;;;;9.10;8.05;;;26.70;99.90;;;;;;10206832;29;20206;-93
2022/08/14 17:37:38;;;;;;;10.63;8.82;;;26.70;99.90;;;;;;10229528;28;20357;-93
2022/08/14 17:42:46;;;;;;;8.27;7.47;;;26.60;99.90;;;;;;10213354;29;20325;-94
2022/08/14 17:47:56;;;;;;;8.82;7.93;;;26.60;99.90;;;;;;10211494;29;20226;-94
2022/08/14 17:53:01;;;;;;;8.77;7.93;;;26.50;99.90;;;;;;10213185;29;20618;-93
2022/08/14 17:58:13;;;;;;;9.23;7.97;;;26.60;99.90;;;;;;10228403;28;20211;-95
2022/08/14 18:03:25;;;;;;;8.38;7.60;;;26.50;99.90;;;;;;10212563;29;20250;-93
2022/08/14 18:08:49;;;;;;;8.93;7.70;;;26.40;99.90;;;;;;10224856;29;20246;-94
2022/08/14 18:13:59;;;;;;;8.30;7.57;;;26.30;99.90;;;;;;10197741;29;20234;-94
2022/08/14 18:19:03;;;;;;;8.38;7.68;;;26.20;99.90;;;;;;10230379;29;20304;-94
2022/08/14 18:24:10;;;;;;;8.90;8.00;;;26.20;99.90;;;;;;10236316;29;20218;-93
2022/08/14 18:29:33;;;;;;;9.15;8.35;;;26.10;99.90;;;;;;10202434;29;20212;-93
2022/08/14 18:34:37;;;;;;;8.55;7.75;;;26.10;99.90;;;;;;10216341;29;20583;-94
2022/08/14 18:39:52;;;;;;;8.90;8.00;;;26.10;99.90;;;;;;10222343;29;20203;-95
2022/08/14 18:45:06;;;;;;;8.93;8.07;;;26.00;99.90;;;;;;10238831;29;20623;-93
2022/08/14 18:50:27;;;;;;;8.65;7.85;;;25.90;99.90;;;;;;10218763;29;20223;-94
2022/08/14 18:55:32;;;;;;;7.97;7.28;;;25.90;99.90;;;;;;10222115;28;20668;-93
2022/08/14 19:00:42;;;;;;;8.60;7.80;;;25.90;99.90;;;;;;10220972;28;20629;-91
2022/08/14 19:05:52;;;;;;;8.55;7.75;;;25.90;99.90;;;;;;10218979;28;20269;-90
2022/08/14 19:11:02;;;;;;;8.68;7.82;;;25.80;99.90;;;;;;10207634;29;20234;-91
2022/08/14 19:16:17;;;;;;;8.35;7.50;;;25.80;99.90;;;;;;10206916;29;20262;-92
2022/08/14 19:21:41;;;;;;;9.25;8.35;;;25.70;99.90;;;;;;10198196;29;20266;-92
2022/08/14 19:26:48;;;;;;;9.32;8.45;;;25.70;99.90;;;;;;10197951;29;20198;-92
2022/08/14 19:31:58;;;;;;;9.05;8.15;;;25.70;99.90;;;;;;10210267;28;20756;-91
2022/08/14 19:37:01;;;;;;;7.88;7.18;;;25.70;99.90;;;;;;10218278;28;20235;-93
2022/08/14 19:42:16;;;;;;;9.02;8.15;;;25.60;99.90;;;;;;10205159;29;20666;-93
2022/08/14 19:47:33;;;;;;;9.20;8.30;;;25.60;99.90;;;;;;10208374;29;20884;-92
2022/08/14 19:52:42;;;;;;;8.82;7.93;;;25.60;99.90;;;;;;10203861;29;20230;-92
2022/08/14 19:57:52;;;;;;;9.50;8.60;;;25.50;99.90;;;;;;10205221;29;20246;-92
2022/08/14 20:03:03;;;;;;;9.20;8.27;;;25.50;99.90;;;;;;10208193;29;20261;-92
2022/08/14 20:08:13;;;;;;;8.57;7.75;;;25.50;99.90;;;;;;10190160;29;20238;-93
2022/08/14 20:13:38;;;;;;;8.30;7.60;;;25.40;99.90;;;;;;10190660;29;20258;-93
2022/08/14 20:18:44;;;;;;;8.48;7.60;;;25.40;99.90;;;;;;10212104;29;20321;-92
2022/08/14 20:24:18;;;;;;;8.10;7.32;;;25.40;99.90;;;;;;10205780;28;20334;-92
2022/08/14 20:29:32;;;;;;;9.18;8.23;;;25.40;99.90;;;;;;10245190;28;20234;-94
2022/08/14 20:34:41;;;;;;;8.25;7.45;;;25.30;99.90;;;;;;10213687;29;20759;-92
2022/08/14 20:39:52;;;;;;;9.05;8.10;;;25.30;99.90;;;;;;10197667;29;20207;-96
2022/08/14 20:45:18;;;;;;;9.02;8.10;;;25.30;99.90;;;;;;10222204;29;20231;-93
2022/08/14 20:50:28;;;;;;;8.55;7.55;;;25.30;99.90;;;;;;10232383;29;20235;-95
2022/08/14 20:55:40;;;;;;;9.73;8.65;;;25.30;99.90;;;;;;10214093;29;20665;-96
2022/08/14 21:00:56;;;;;;;9.63;8.55;;;25.20;99.90;;;;;;10220147;29;20245;-96
2022/08/14 21:06:15;;;;;;;8.77;7.97;;;25.20;99.90;;;;;;10225732;28;20203;-96
2022/08/14 21:11:23;;;;;;;8.30;7.50;;;25.20;99.90;;;;;;10241457;28;20203;-96
2022/08/14 21:16:27;;;;;;;10.32;9.32;;;25.20;99.90;;;;;;10212445;29;20302;-95
2022/08/14 21:21:41;;;;;;;9.73;8.82;;;25.20;99.90;;;;;;10218457;29;20286;-95
2022/08/14 21:26:54;;;;;;;10.38;9.30;;;25.20;99.90;;;;;;10222275;28;20587;-95
2022/08/14 21:32:31;;;;;;;8.75;7.68;;;25.10;99.90;;;;;;10248742;28;20235;-93
2022/08/14 21:37:43;;;;;;;9.80;8.80;;;25.10;99.90;;;;;;10211768;29;20278;-96
2022/08/14 21:42:47;;;;;;;8.95;8.02;;;25.10;99.90;;;;;;10231500;29;20227;-95
2022/08/14 21:47:49;;;;;;;10.68;8.63;;;25.10;99.90;;;;;;10215763;29;20203;-94
2022/08/14 21:52:52;;;;;;;8.95;8.05;;;25.10;99.90;;;;;;10213410;29;20207;-94
2022/08/14 21:58:06;;;;;;;8.88;8.00;;;25.10;99.90;;;;;;10228454;29;20264;-94
2022/08/14 22:03:28;;;;;;;9.35;8.35;;;25.00;99.90;;;;;;10211022;29;20259;-94
2022/08/14 22:08:39;;;;;;;9.85;8.63;;;25.00;99.90;;;;;;10201179;29;20199;-93
2022/08/14 22:13:47;;;;;;;9.65;8.75;;;25.00;99.90;;;;;;10213361;29;20305;-95
2022/08/14 22:18:50;;;;;;;9.45;8.30;;;25.00;99.90;;;;;;10213827;29;20211;-93
2022/08/14 22:23:53;;;;;;;9.18;8.27;;;25.00;99.90;;;;;;10228014;29;20590;-95
2022/08/14 22:28:57;;;;;;;9.75;8.75;;;25.00;99.90;;;;;;10229134;28;20419;-95
2022/08/14 22:34:02;;;;;;;10.18;8.75;;;25.00;99.90;;;;;;10205954;29;20688;-94
2022/08/14 22:39:05;;;;;;;9.90;8.90;;;25.00;99.90;;;;;;10209016;29;20235;-94
2022/08/14 22:44:16;;;;;;;10.77;8.70;;;25.00;99.90;;;;;;10209949;29;20250;-93
2022/08/14 22:49:22;;;;;;;10.98;9.88;;;24.90;99.90;;;;;;10209117;29;20302;-94
2022/08/14 22:54:44;;;;;;;8.98;8.10;;;24.90;99.90;;;;;;10196415;29;20290;-94
2022/08/14 22:59:55;;;;;;;9.93;8.40;;;24.90;99.90;;;;;;10194868;29;20210;-93
2022/08/14 23:05:04;;;;;;;10.07;9.05;;;24.90;99.90;;;;;;10209252;29;20672;-96
2022/08/14 23:10:08;;;;;;;10.70;8.90;;;24.90;99.90;;;;;;10224681;28;20265;-94
2022/08/14 23:15:32;;;;;;;10.27;9.30;;;24.90;99.90;;;;;;10209681;29;20230;-95
2022/08/14 23:20:35;;;;;;;10.52;8.98;;;24.90;99.90;;;;;;10224978;29;20195;-94
2022/08/14 23:25:40;;;;;;;9.55;8.70;;;24.90;99.90;;;;;;10224867;28;20309;-93
2022/08/14 23:31:05;;;;;;;11.18;9.57;;;24.90;99.90;;;;;;10207309;29;20364;-95
2022/08/14 23:36:12;;;;;;;9.70;8.40;;;24.80;99.90;;;;;;10192874;29;20255;-94
2022/08/14 23:41:36;;;;;;;9.38;8.48;;;24.80;99.90;;;;;;10193608;29;20707;-94
2022/08/14 23:46:56;;;;;;;10.40;9.30;;;24.80;99.90;;;;;;10184125;28;20243;-92
2022/08/14 23:52:07;;;;;;;9.60;8.70;;;24.80;99.90;;;;;;10200111;29;20246;-93
2022/08/14 23:57:29;;;;;;;10.98;9.68;;;24.80;99.90;;;;;;10215270;29;20250;-93
